createdAt,value
2023-04-08T00:01:57.537Z,93.40
2023-04-08T00:04:43.390Z,93.50
2023-04-08T00:07:29.751Z,93.40
2023-04-08T00:10:18.404Z,93.40
2023-04-08T00:13:03.651Z,93.70
2023-04-08T00:15:49.255Z,93.20
2023-04-08T00:18:34.729Z,93.40
2023-04-08T00:21:22.098Z,93.40
2023-04-08T00:24:07.336Z,93.40
2023-04-08T00:26:52.912Z,93.50
2023-04-08T00:29:38.433Z,93.50
2023-04-08T00:32:24.031Z,93.60
2023-04-08T00:35:12.921Z,93.60
2023-04-08T00:37:58.575Z,93.60
2023-04-08T00:40:43.883Z,93.70
2023-04-08T00:43:29.413Z,93.60
2023-04-08T00:46:14.912Z,93.80
2023-04-08T00:49:02.211Z,93.80
2023-04-08T00:51:47.748Z,93.70
2023-04-08T00:54:33.479Z,93.90
2023-04-08T00:57:18.910Z,93.80
2023-04-08T01:00:06.540Z,93.90
2023-04-08T01:03:04.562Z,94.10
2023-04-08T01:06:06.652Z,94.00
2023-04-08T01:08:55.308Z,94.10
2023-04-08T01:11:46.377Z,94.10
2023-04-08T01:14:34.945Z,94.10
2023-04-08T01:17:22.301Z,94.00
2023-04-08T01:20:09.342Z,94.20
2023-04-08T01:23:01.288Z,94.20
2023-04-08T01:25:56.445Z,94.20
2023-04-08T01:28:43.771Z,94.60
2023-04-08T01:31:30.811Z,94.60
2023-04-08T01:34:21.742Z,94.30
2023-04-08T01:37:08.136Z,94.40
2023-04-08T01:39:55.151Z,94.50
2023-04-08T01:42:42.069Z,94.50
2023-04-08T01:45:31.076Z,94.50
2023-04-08T01:48:20.160Z,94.70
2023-04-08T01:51:06.360Z,94.80
2023-04-08T01:53:53.605Z,94.90
2023-04-08T01:56:42.602Z,95.00
2023-04-08T01:59:34.611Z,95.10
2023-04-08T02:02:26.743Z,95.00
2023-04-08T02:05:12.362Z,95.00
2023-04-08T02:07:57.666Z,95.00
2023-04-08T02:10:44.618Z,95.10
2023-04-08T02:13:31.619Z,95.00
2023-04-08T02:16:27.545Z,95.10
2023-04-08T02:19:24.433Z,94.80
2023-04-08T02:22:19.161Z,94.90
2023-04-08T02:25:08.100Z,94.90
2023-04-08T02:27:56.080Z,95.00
2023-04-08T02:30:43.501Z,95.00
2023-04-08T02:33:29.190Z,95.10
2023-04-08T02:36:16.497Z,95.10
2023-04-08T02:39:03.094Z,95.10
2023-04-08T02:41:48.531Z,94.80
2023-04-08T02:44:37.213Z,94.70
2023-04-08T02:47:22.913Z,94.80
2023-04-08T02:50:10.597Z,95.00
2023-04-08T02:52:56.370Z,95.10
2023-04-08T02:56:04.229Z,95.30
2023-04-08T02:58:48.466Z,95.60
2023-04-08T03:01:34.254Z,95.80
2023-04-08T03:04:19.946Z,95.80
2023-04-08T03:07:08.111Z,95.80
2023-04-08T03:09:57.577Z,96.00
2023-04-08T03:12:42.982Z,96.20
2023-04-08T03:15:28.611Z,96.40
2023-04-08T03:18:14.200Z,96.30
2023-04-08T03:21:00.098Z,96.40
2023-04-08T03:23:45.696Z,96.20
2023-04-08T03:26:31.116Z,96.30
2023-04-08T03:29:16.597Z,96.50
2023-04-08T03:32:02.394Z,96.60
2023-04-08T03:34:51.234Z,96.70
2023-04-08T03:37:36.809Z,96.70
2023-04-08T03:40:28.227Z,96.80
2023-04-08T03:43:14.700Z,96.60
2023-04-08T03:46:00.199Z,96.40
2023-04-08T03:48:45.478Z,96.30
2023-04-08T03:51:31.048Z,96.50
2023-04-08T03:54:19.370Z,96.60
2023-04-08T03:57:04.889Z,96.60
2023-04-08T03:59:50.503Z,96.50
2023-04-08T04:02:36.296Z,96.80
2023-04-08T04:05:22.477Z,96.90
2023-04-08T04:08:09.341Z,96.90
2023-04-08T04:10:54.934Z,97.00
2023-04-08T04:13:40.641Z,97.00
2023-04-08T04:16:26.325Z,96.80
2023-04-08T04:19:11.949Z,96.90
2023-04-08T04:21:57.377Z,96.60
2023-04-08T04:24:47.305Z,96.80
2023-04-08T04:27:32.963Z,96.50
2023-04-08T04:30:19.617Z,96.50
2023-04-08T04:33:05.745Z,96.60
2023-04-08T04:35:51.117Z,96.60
2023-04-08T04:38:37.039Z,96.90
2023-04-08T04:41:22.470Z,97.00
2023-04-08T04:44:08.206Z,97.10
2023-04-08T04:46:53.628Z,97.10
2023-04-08T04:49:40.284Z,97.10
2023-04-08T04:52:28.729Z,97.00
2023-04-08T04:55:16.069Z,96.90
2023-04-08T04:58:01.800Z,96.90
2023-04-08T05:00:47.095Z,97.00
2023-04-08T05:03:32.624Z,97.30
2023-04-08T05:06:18.133Z,97.20
2023-04-08T05:09:03.694Z,97.20
2023-04-08T05:11:49.387Z,97.30
2023-04-08T05:14:34.733Z,97.30
2023-04-08T05:17:23.169Z,97.20
2023-04-08T05:20:09.513Z,97.50
2023-04-08T05:22:56.691Z,97.30
2023-04-08T05:25:42.290Z,97.40
2023-04-08T05:28:30.595Z,97.60
2023-04-08T05:31:16.738Z,97.80
2023-04-08T05:34:01.949Z,97.80
2023-04-08T05:36:47.546Z,97.90
2023-04-08T05:39:33.534Z,97.70
2023-04-08T05:42:18.718Z,97.80
2023-04-08T05:45:04.927Z,97.90
2023-04-08T05:47:50.891Z,97.70
2023-04-08T05:50:41.656Z,97.80
2023-04-08T05:53:27.229Z,97.80
2023-04-08T05:56:12.874Z,98.00
2023-04-08T05:58:59.665Z,98.10
2023-04-08T06:01:45.636Z,98.20
2023-04-08T06:04:32.779Z,98.10
2023-04-08T06:07:20.867Z,98.10
2023-04-08T06:10:07.354Z,98.20
2023-04-08T06:12:52.969Z,98.10
2023-04-08T06:15:38.274Z,98.30
2023-04-08T06:18:25.620Z,98.10
2023-04-08T06:21:11.689Z,97.80
2023-04-08T06:23:57.047Z,97.90
2023-04-08T06:26:42.544Z,98.10
2023-04-08T06:29:30.049Z,98.10
2023-04-08T06:32:16.249Z,98.40
2023-04-08T06:35:01.972Z,98.40
2023-04-08T06:37:47.245Z,97.90
2023-04-08T06:40:32.882Z,98.00
2023-04-08T06:43:18.315Z,97.90
2023-04-08T06:46:04.150Z,98.00
2023-04-08T06:48:49.814Z,98.20
2023-04-08T06:51:35.523Z,98.30
2023-04-08T06:54:22.620Z,98.10
2023-04-08T06:57:11.687Z,98.40
2023-04-08T06:59:57.311Z,98.40
2023-04-08T07:02:42.755Z,98.50
2023-04-08T07:05:28.124Z,98.40
2023-04-08T07:08:14.876Z,98.30
2023-04-08T07:11:00.874Z,98.50
2023-04-08T07:13:46.267Z,98.60
2023-04-08T07:16:31.898Z,98.30
2023-04-08T07:19:17.422Z,98.70
2023-04-08T07:22:02.732Z,97.70
2023-04-08T07:24:52.026Z,97.90
2023-04-08T07:27:37.469Z,98.00
2023-04-08T07:30:23.398Z,98.60
2023-04-08T07:33:11.573Z,97.90
2023-04-08T07:35:56.998Z,97.70
2023-04-08T07:38:42.209Z,96.80
2023-04-08T07:41:27.394Z,97.20
2023-04-08T07:44:17.015Z,96.90
2023-04-08T07:47:02.628Z,96.80
2023-04-08T07:49:48.598Z,96.70
2023-04-08T07:52:34.720Z,96.40
2023-04-08T07:55:20.450Z,96.80
2023-04-08T07:58:06.373Z,97.30
2023-04-08T08:00:51.873Z,97.20
2023-04-08T08:03:38.884Z,96.70
2023-04-08T08:06:24.438Z,96.50
2023-04-08T08:09:11.618Z,96.60
2023-04-08T08:11:57.202Z,96.30
2023-04-08T08:14:42.664Z,96.90
2023-04-08T08:17:30.323Z,96.50
2023-04-08T08:20:16.894Z,95.60
2023-04-08T08:23:02.421Z,95.70
2023-04-08T08:25:47.744Z,96.40
2023-04-08T08:28:33.729Z,95.80
2023-04-08T08:31:19.071Z,95.30
2023-04-08T08:34:04.628Z,94.60
2023-04-08T08:36:50.447Z,94.90
2023-04-08T08:39:36.160Z,95.20
2023-04-08T08:42:25.526Z,94.60
2023-04-08T08:45:11.333Z,94.20
2023-04-08T08:47:57.691Z,94.20
2023-04-08T08:50:43.470Z,94.10
2023-04-08T08:53:33.483Z,94.40
2023-04-08T08:56:22.149Z,94.40
2023-04-08T08:59:07.301Z,94.40
2023-04-08T09:01:53.034Z,94.40
2023-04-08T09:04:38.549Z,93.80
2023-04-08T09:07:26.764Z,94.20
2023-04-08T09:10:12.232Z,93.50
2023-04-08T09:12:58.385Z,92.80
2023-04-08T09:16:20.306Z,93.10
2023-04-08T09:19:10.511Z,92.40
2023-04-08T09:22:12.700Z,92.10
2023-04-08T09:24:58.579Z,90.80
2023-04-08T09:27:44.037Z,90.10
2023-04-08T09:30:54.212Z,89.00
2023-04-08T09:33:39.473Z,89.80
2023-04-08T09:36:28.638Z,89.20
2023-04-08T09:39:14.033Z,89.40
2023-04-08T09:42:04.206Z,89.70
2023-04-08T09:44:49.984Z,90.00
2023-04-08T09:48:05.763Z,90.10
2023-04-08T09:50:52.949Z,90.50
2023-04-08T09:53:41.711Z,90.60
2023-04-08T09:56:31.566Z,90.80
2023-04-08T09:59:18.754Z,91.00
2023-04-08T10:02:10.229Z,91.20
2023-04-08T10:04:59.214Z,91.40
2023-04-08T10:07:48.188Z,91.50
2023-04-08T10:10:40.774Z,91.60
2023-04-08T10:13:28.434Z,91.40
2023-04-08T10:16:20.041Z,91.20
2023-04-08T10:19:43.321Z,90.80
2023-04-08T10:22:28.825Z,90.80
2023-04-08T10:25:26.652Z,88.80
2023-04-08T10:28:18.632Z,88.50
2023-04-08T10:31:04.655Z,88.10
2023-04-08T10:33:49.892Z,86.60
2023-04-08T10:36:36.310Z,85.60
2023-04-08T10:39:22.100Z,85.60
2023-04-08T10:42:08.785Z,85.80
2023-04-08T10:44:54.125Z,84.50
2023-04-08T10:47:39.464Z,82.70
2023-04-08T10:50:24.939Z,82.20
2023-04-08T10:53:11.303Z,80.20
2023-04-08T10:56:07.813Z,80.50
2023-04-08T10:58:56.571Z,78.70
2023-04-08T11:01:44.980Z,76.20
2023-04-08T11:04:30.731Z,77.40
2023-04-08T11:07:16.139Z,74.80
2023-04-08T11:10:07.463Z,73.10
2023-04-08T11:12:55.376Z,73.20
2023-04-08T11:15:42.754Z,72.10
2023-04-08T11:18:28.616Z,70.60
2023-04-08T11:21:15.321Z,69.80
2023-04-08T11:24:12.151Z,69.70
2023-04-08T11:27:00.114Z,68.10
2023-04-08T11:29:45.607Z,64.90
2023-04-08T11:32:31.465Z,65.50
2023-04-08T11:35:17.600Z,63.20
2023-04-08T11:38:05.462Z,61.10
2023-04-08T11:40:55.252Z,60.20
2023-04-08T11:43:57.047Z,57.80
2023-04-08T11:46:55.292Z,55.10
2023-04-08T11:49:45.712Z,53.30
2023-04-08T11:52:41.507Z,49.40
2023-04-08T11:55:28.060Z,47.20
2023-04-08T11:58:13.618Z,46.60
2023-04-08T12:00:59.410Z,44.90
2023-04-08T12:04:14.187Z,42.70
2023-04-08T12:06:59.883Z,38.50
2023-04-08T12:09:45.002Z,38.40
2023-04-08T12:12:31.252Z,36.80
2023-04-08T12:15:16.784Z,35.50
2023-04-08T12:18:02.386Z,34.20
2023-04-08T12:20:47.524Z,33.50
2023-04-08T12:23:34.024Z,32.00
2023-04-08T12:26:20.152Z,31.20
2023-04-08T12:29:06.069Z,30.10
2023-04-08T12:31:51.656Z,29.50
2023-04-08T12:34:36.764Z,29.80
2023-04-08T12:37:22.358Z,28.20
2023-04-08T12:40:08.792Z,27.90
2023-04-08T12:42:54.037Z,26.50
2023-04-08T12:45:39.548Z,26.30
2023-04-08T12:48:25.600Z,25.90
2023-04-08T12:51:12.715Z,25.90
2023-04-08T12:53:59.624Z,25.20
2023-04-08T12:56:45.632Z,25.10
2023-04-08T12:59:35.338Z,24.80
2023-04-08T13:02:20.740Z,24.80
2023-04-08T13:05:06.225Z,23.80
2023-04-08T13:07:51.828Z,23.70
2023-04-08T13:10:37.717Z,23.70
2023-04-08T13:13:23.127Z,23.40
2023-04-08T13:16:09.613Z,23.30
2023-04-08T13:18:55.841Z,22.40
2023-04-08T13:21:41.085Z,22.60
2023-04-08T13:24:26.619Z,22.10
2023-04-08T13:27:12.355Z,21.90
2023-04-08T13:30:00.949Z,21.70
2023-04-08T13:32:49.170Z,21.60
2023-04-08T13:35:34.890Z,20.90
2023-04-08T13:38:20.553Z,21.00
2023-04-08T13:41:05.773Z,21.00
2023-04-08T13:43:51.321Z,20.40
2023-04-08T13:46:36.694Z,20.30
2023-04-08T13:49:22.685Z,20.40
2023-04-08T13:52:08.154Z,20.30
2023-04-08T13:54:53.757Z,19.80
2023-04-08T13:57:39.386Z,19.50
2023-04-08T14:00:25.677Z,19.40
2023-04-08T14:03:11.032Z,19.40
2023-04-08T14:06:01.933Z,19.90
2023-04-08T14:08:47.291Z,20.20
2023-04-08T14:11:32.846Z,20.90
2023-04-08T14:14:18.511Z,21.90
2023-04-08T14:17:04.328Z,21.90
2023-04-08T14:19:49.914Z,22.90
2023-04-08T14:22:37.847Z,23.30
2023-04-08T14:25:26.602Z,24.00
2023-04-08T14:28:12.303Z,24.30
2023-04-08T14:30:58.084Z,24.70
2023-04-08T14:33:43.568Z,25.10
2023-04-08T14:36:30.203Z,26.20
2023-04-08T14:39:15.479Z,26.70
2023-04-08T14:42:02.109Z,27.10
2023-04-08T14:44:47.786Z,27.40
2023-04-08T14:47:34.391Z,27.90
2023-04-08T14:50:23.010Z,26.30
2023-04-08T14:53:08.262Z,25.20
2023-04-08T14:55:54.033Z,24.60
2023-04-08T14:58:39.460Z,23.90
2023-04-08T15:01:25.698Z,23.30
2023-04-08T15:04:11.236Z,22.10
2023-04-08T15:06:57.061Z,21.90
2023-04-08T15:09:42.765Z,21.10
2023-04-08T15:12:29.182Z,21.60
2023-04-08T15:15:15.655Z,22.10
2023-04-08T15:18:03.838Z,22.60
2023-04-08T15:20:49.319Z,22.40
2023-04-08T15:23:34.680Z,22.50
2023-04-08T15:26:21.566Z,23.40
2023-04-08T15:29:07.061Z,23.30
2023-04-08T15:31:52.791Z,23.30
2023-04-08T15:34:41.433Z,21.90
2023-04-08T15:37:27.049Z,22.10
2023-04-08T15:40:13.046Z,21.80
2023-04-08T15:43:01.362Z,21.50
2023-04-08T15:45:48.304Z,22.50
2023-04-08T15:48:34.009Z,22.40
2023-04-08T15:51:20.487Z,23.20
2023-04-08T15:54:06.432Z,24.30
2023-04-08T15:56:51.891Z,24.80
2023-04-08T15:59:37.214Z,24.90
2023-04-08T16:02:23.115Z,23.50
2023-04-08T16:05:09.231Z,21.70
2023-04-08T16:07:54.559Z,21.30
2023-04-08T16:10:39.932Z,21.40
2023-04-08T16:13:25.428Z,22.00
2023-04-08T16:16:12.399Z,22.50
2023-04-08T16:18:58.407Z,23.40
2023-04-08T16:21:44.081Z,23.10
2023-04-08T16:24:29.745Z,22.00
2023-04-08T16:27:14.789Z,21.10
2023-04-08T16:30:00.437Z,20.60
2023-04-08T16:32:45.647Z,20.80
2023-04-08T16:35:31.645Z,20.30
2023-04-08T16:38:16.828Z,20.50
2023-04-08T16:41:04.665Z,20.80
2023-04-08T16:43:52.762Z,21.10
2023-04-08T16:46:38.492Z,20.90
2023-04-08T16:49:24.659Z,21.10
2023-04-08T16:52:13.053Z,21.10
2023-04-08T16:55:01.944Z,21.30
2023-04-08T16:57:47.635Z,21.90
2023-04-08T17:00:33.173Z,22.30
2023-04-08T17:03:19.003Z,22.80
2023-04-08T17:06:13.781Z,23.50
2023-04-08T17:08:59.293Z,24.20
2023-04-08T17:11:44.901Z,25.40
2023-04-08T17:14:30.079Z,26.40
2023-04-08T17:17:16.265Z,26.90
2023-04-08T17:20:01.964Z,27.20
2023-04-08T17:22:47.771Z,27.60
2023-04-08T17:25:35.390Z,28.60
2023-04-08T17:28:21.962Z,29.90
2023-04-08T17:31:07.526Z,31.20
2023-04-08T17:33:53.145Z,33.10
2023-04-08T17:36:41.830Z,34.60
2023-04-08T17:39:27.422Z,36.10
2023-04-08T17:42:13.249Z,37.40
2023-04-08T17:45:02.032Z,39.00
2023-04-08T17:47:47.446Z,40.80
2023-04-08T17:50:33.429Z,42.60
2023-04-08T17:53:19.179Z,44.40
2023-04-08T17:56:06.010Z,46.50
2023-04-08T17:58:51.500Z,48.20
2023-04-08T18:01:39.823Z,50.00
2023-04-08T18:04:25.588Z,51.70
2023-04-08T18:07:11.108Z,53.40
2023-04-08T18:09:56.421Z,54.70
2023-04-08T18:12:42.092Z,56.50
2023-04-08T18:15:27.343Z,58.00
2023-04-08T18:18:14.941Z,59.40
2023-04-08T18:21:00.962Z,61.10
2023-04-08T18:23:49.798Z,62.40
2023-04-08T18:26:35.724Z,64.10
2023-04-08T18:29:22.512Z,65.40
2023-04-08T18:32:08.163Z,66.80
2023-04-08T18:34:54.297Z,67.70
2023-04-08T18:37:39.633Z,68.70
2023-04-08T18:40:25.536Z,69.50
2023-04-08T18:43:12.003Z,70.40
2023-04-08T18:45:57.326Z,71.30
2023-04-08T18:48:42.637Z,72.00
2023-04-08T18:51:30.916Z,72.90
2023-04-08T18:54:17.751Z,73.10
2023-04-08T18:57:03.318Z,73.80
2023-04-08T18:59:48.891Z,74.00
2023-04-08T19:02:35.037Z,74.50
2023-04-08T19:05:20.668Z,74.70
2023-04-08T19:08:12.237Z,75.00
2023-04-08T19:10:58.071Z,75.20
2023-04-08T19:13:43.548Z,75.70
2023-04-08T19:16:28.801Z,76.10
2023-04-08T19:19:14.532Z,76.90
2023-04-08T19:22:02.673Z,77.30
2023-04-08T19:24:48.223Z,77.90
2023-04-08T19:27:33.709Z,78.50
2023-04-08T19:30:18.976Z,78.60
2023-04-08T19:33:05.726Z,78.90
2023-04-08T19:35:51.217Z,79.20
2023-04-08T19:38:37.064Z,80.30
2023-04-08T19:41:23.111Z,80.40
2023-04-08T19:44:08.614Z,81.70
2023-04-08T19:46:54.678Z,81.80
2023-04-08T19:49:40.460Z,81.80
2023-04-08T19:52:26.821Z,82.70
2023-04-08T19:55:12.287Z,83.20
2023-04-08T19:58:00.681Z,83.70
2023-04-08T20:00:46.539Z,83.90
2023-04-08T20:03:32.350Z,84.40
2023-04-08T20:06:18.987Z,84.90
2023-04-08T20:09:05.653Z,85.10
2023-04-08T20:11:51.446Z,85.70
2023-04-08T20:14:42.200Z,86.10
2023-04-08T20:17:27.996Z,86.20
2023-04-08T20:20:17.009Z,86.90
2023-04-08T20:23:02.759Z,86.80
2023-04-08T20:25:48.250Z,87.20
2023-04-08T20:28:33.997Z,87.80
2023-04-08T20:31:19.783Z,88.30
2023-04-08T20:34:06.525Z,88.20
2023-04-08T20:36:55.927Z,88.40
2023-04-08T20:39:41.871Z,88.80
2023-04-08T20:42:27.007Z,89.20
2023-04-08T20:45:12.629Z,89.50
2023-04-08T20:47:58.158Z,90.00
2023-04-08T20:50:43.676Z,90.20
2023-04-08T20:53:29.999Z,90.30
2023-04-08T20:56:16.332Z,90.40
2023-04-08T20:59:01.842Z,90.50
2023-04-08T21:01:52.288Z,90.50
2023-04-08T21:04:38.098Z,90.80
2023-04-08T21:07:26.157Z,90.80
2023-04-08T21:10:14.152Z,90.90
2023-04-08T21:13:01.198Z,90.80
2023-04-08T21:15:46.478Z,91.10
2023-04-08T21:18:32.753Z,91.10
2023-04-08T21:21:17.998Z,91.30
2023-04-08T21:24:04.033Z,91.50
2023-04-08T21:26:49.756Z,91.60
2023-04-08T21:29:35.439Z,91.80
2023-04-08T21:32:20.757Z,92.00
2023-04-08T21:35:06.466Z,92.10
2023-04-08T21:37:51.995Z,92.20
2023-04-08T21:40:42.366Z,92.80
2023-04-08T21:43:27.632Z,92.60
2023-04-08T21:46:13.379Z,92.80
2023-04-08T21:48:58.765Z,93.00
2023-04-08T21:51:44.219Z,93.00
2023-04-08T21:54:29.718Z,93.20
2023-04-08T21:57:18.346Z,93.30
2023-04-08T22:00:13.197Z,93.30
2023-04-08T22:03:02.059Z,93.40
2023-04-08T22:05:47.653Z,93.60
2023-04-08T22:08:37.498Z,93.70
2023-04-08T22:11:23.024Z,93.80
2023-04-08T22:14:08.423Z,93.80
2023-04-08T22:16:54.579Z,94.40
2023-04-08T22:19:39.650Z,94.20
2023-04-08T22:22:25.405Z,94.40
2023-04-08T22:25:11.155Z,94.30
2023-04-08T22:27:56.804Z,94.50
2023-04-08T22:30:42.405Z,94.60
2023-04-08T22:33:28.059Z,94.70
2023-04-08T22:36:13.354Z,94.80
2023-04-08T22:38:59.468Z,94.90
2023-04-08T22:41:45.748Z,94.80
2023-04-08T22:44:31.408Z,95.00
2023-04-08T22:47:16.717Z,95.10
2023-04-08T22:50:02.243Z,95.10
2023-04-08T22:52:47.913Z,95.20
2023-04-08T22:55:33.376Z,95.20
2023-04-08T22:58:18.900Z,95.20
2023-04-08T23:01:18.112Z,95.30
2023-04-08T23:04:09.826Z,95.30
2023-04-08T23:06:55.480Z,95.30
2023-04-08T23:09:40.998Z,95.40
2023-04-08T23:12:26.498Z,95.50
2023-04-08T23:15:12.004Z,95.40
2023-04-08T23:18:00.396Z,95.60
2023-04-08T23:20:52.920Z,95.70
2023-04-08T23:23:38.344Z,95.80
2023-04-08T23:26:25.237Z,95.80
2023-04-08T23:29:10.675Z,95.90
2023-04-08T23:31:58.494Z,96.00
2023-04-08T23:34:43.931Z,96.10
2023-04-08T23:37:29.890Z,96.20
2023-04-08T23:40:15.392Z,96.30
2023-04-08T23:43:01.268Z,96.20
2023-04-08T23:45:46.523Z,96.40
2023-04-08T23:48:32.081Z,96.40
2023-04-08T23:51:18.162Z,96.40
2023-04-08T23:54:03.613Z,96.50
2023-04-08T23:56:48.824Z,96.40
2023-04-08T23:59:34.626Z,96.50
